sensor_id;sensor_type;location;lat;lon;timestamp;pressure;altitude;pressure_sealevel;temperature;humidity
48053;BME280;33824;51.600;5.718;2023-03-01T00:01:27;102948.66;;;0.45;65.28
48053;BME280;33824;51.600;5.718;2023-03-01T00:03:54;102949.50;;;0.45;65.48
48053;BME280;33824;51.600;5.718;2023-03-01T00:06:20;102947.06;;;0.41;65.85
48053;BME280;33824;51.600;5.718;2023-03-01T00:08:46;102949.91;;;0.35;65.52
48053;BME280;33824;51.600;5.718;2023-03-01T00:11:16;102954.47;;;0.30;66.23
48053;BME280;33824;51.600;5.718;2023-03-01T00:13:46;102944.84;;;0.30;66.67
48053;BME280;33824;51.600;5.718;2023-03-01T00:16:16;102950.25;;;0.26;66.39
48053;BME280;33824;51.600;5.718;2023-03-01T00:18:43;102948.56;;;0.23;66.41
48053;BME280;33824;51.600;5.718;2023-03-01T00:21:09;102953.03;;;0.21;66.56
48053;BME280;33824;51.600;5.718;2023-03-01T00:23:35;102949.59;;;0.19;66.05
48053;BME280;33824;51.600;5.718;2023-03-01T00:26:01;102949.78;;;0.15;66.56
48053;BME280;33824;51.600;5.718;2023-03-01T00:28:27;102953.38;;;0.12;66.13
48053;BME280;33824;51.600;5.718;2023-03-01T00:30:52;102944.88;;;0.06;66.75
48053;BME280;33824;51.600;5.718;2023-03-01T00:33:18;102945.84;;;0.03;66.27
48053;BME280;33824;51.600;5.718;2023-03-01T00:35:44;102943.44;;;-0.03;65.90
48053;BME280;33824;51.600;5.718;2023-03-01T00:38:09;102955.78;;;-0.07;66.30
48053;BME280;33824;51.600;5.718;2023-03-01T00:40:36;102947.25;;;-0.12;66.69
48053;BME280;33824;51.600;5.718;2023-03-01T00:43:02;102943.81;;;-0.14;67.56
48053;BME280;33824;51.600;5.718;2023-03-01T00:45:28;102941.06;;;-0.11;67.78
48053;BME280;33824;51.600;5.718;2023-03-01T00:47:56;102934.94;;;-0.10;68.56
48053;BME280;33824;51.600;5.718;2023-03-01T00:50:22;102931.41;;;-0.09;67.70
48053;BME280;33824;51.600;5.718;2023-03-01T00:52:52;102919.34;;;-0.14;67.71
48053;BME280;33824;51.600;5.718;2023-03-01T00:55:18;102926.31;;;-0.13;67.92
48053;BME280;33824;51.600;5.718;2023-03-01T00:57:43;102926.44;;;-0.16;68.30
48053;BME280;33824;51.600;5.718;2023-03-01T01:00:10;102922.13;;;-0.19;67.55
48053;BME280;33824;51.600;5.718;2023-03-01T01:02:36;102919.59;;;-0.20;67.47
48053;BME280;33824;51.600;5.718;2023-03-01T01:05:02;102918.78;;;-0.22;68.07
48053;BME280;33824;51.600;5.718;2023-03-01T01:07:28;102919.78;;;-0.26;67.78
48053;BME280;33824;51.600;5.718;2023-03-01T01:09:54;102927.84;;;-0.31;67.14
48053;BME280;33824;51.600;5.718;2023-03-01T01:12:19;102929.78;;;-0.37;67.98
48053;BME280;33824;51.600;5.718;2023-03-01T01:14:45;102923.75;;;-0.39;67.78
48053;BME280;33824;51.600;5.718;2023-03-01T01:17:11;102909.75;;;-0.38;67.49
48053;BME280;33824;51.600;5.718;2023-03-01T01:19:37;102914.06;;;-0.37;68.14
48053;BME280;33824;51.600;5.718;2023-03-01T01:22:02;102912.41;;;-0.40;68.13
48053;BME280;33824;51.600;5.718;2023-03-01T01:24:28;102901.91;;;-0.38;68.39
48053;BME280;33824;51.600;5.718;2023-03-01T01:26:54;102897.59;;;-0.41;68.46
48053;BME280;33824;51.600;5.718;2023-03-01T01:29:19;102890.66;;;-0.42;68.04
48053;BME280;33824;51.600;5.718;2023-03-01T01:31:45;102901.94;;;-0.40;68.54
48053;BME280;33824;51.600;5.718;2023-03-01T01:34:21;102886.38;;;-0.44;68.49
48053;BME280;33824;51.600;5.718;2023-03-01T01:36:51;102890.75;;;-0.45;68.05
48053;BME280;33824;51.600;5.718;2023-03-01T01:39:18;102882.75;;;-0.65;68.13
48053;BME280;33824;51.600;5.718;2023-03-01T01:41:44;102881.63;;;-0.58;68.65
48053;BME280;33824;51.600;5.718;2023-03-01T01:44:19;102877.31;;;-0.61;68.24
48053;BME280;33824;51.600;5.718;2023-03-01T01:47:00;102872.41;;;-0.70;68.45
48053;BME280;33824;51.600;5.718;2023-03-01T01:49:32;102870.66;;;-0.69;68.28
48053;BME280;33824;51.600;5.718;2023-03-01T01:52:41;102866.09;;;-0.89;68.88
48053;BME280;33824;51.600;5.718;2023-03-01T01:57:32;102854.59;;;-0.85;68.84
48053;BME280;33824;51.600;5.718;2023-03-01T02:00:04;102869.19;;;-0.78;69.49
48053;BME280;33824;51.600;5.718;2023-03-01T02:02:31;102856.84;;;-0.74;69.50
48053;BME280;33824;51.600;5.718;2023-03-01T02:05:10;102861.31;;;-0.76;70.02
48053;BME280;33824;51.600;5.718;2023-03-01T02:07:38;102858.72;;;-0.78;69.93
48053;BME280;33824;51.600;5.718;2023-03-01T02:10:05;102854.28;;;-0.76;70.55
48053;BME280;33824;51.600;5.718;2023-03-01T02:12:32;102859.47;;;-0.74;70.50
48053;BME280;33824;51.600;5.718;2023-03-01T02:14:58;102856.00;;;-0.75;70.26
48053;BME280;33824;51.600;5.718;2023-03-01T02:17:23;102864.75;;;-0.76;70.32
48053;BME280;33824;51.600;5.718;2023-03-01T02:23:14;102867.00;;;-0.90;71.57
48053;BME280;33824;51.600;5.718;2023-03-01T02:28:38;102861.25;;;-1.01;72.23
48053;BME280;33824;51.600;5.718;2023-03-01T02:31:07;102854.88;;;-0.92;72.07
48053;BME280;33824;51.600;5.718;2023-03-01T02:33:53;102857.41;;;-0.91;72.22
48053;BME280;33824;51.600;5.718;2023-03-01T02:36:23;102852.25;;;-0.92;71.58
48053;BME280;33824;51.600;5.718;2023-03-01T02:38:52;102845.28;;;-0.93;72.21
48053;BME280;33824;51.600;5.718;2023-03-01T02:41:19;102853.91;;;-0.90;72.46
48053;BME280;33824;51.600;5.718;2023-03-01T02:43:46;102859.25;;;-0.93;72.18
48053;BME280;33824;51.600;5.718;2023-03-01T02:46:20;102851.59;;;-0.99;72.83
48053;BME280;33824;51.600;5.718;2023-03-01T02:48:48;102856.06;;;-1.03;73.00
48053;BME280;33824;51.600;5.718;2023-03-01T02:51:48;102852.75;;;-1.08;73.23
48053;BME280;33824;51.600;5.718;2023-03-01T02:54:25;102850.03;;;-1.05;72.39
48053;BME280;33824;51.600;5.718;2023-03-01T02:56:53;102842.06;;;-1.02;72.58
48053;BME280;33824;51.600;5.718;2023-03-01T02:59:21;102841.28;;;-1.04;71.44
48053;BME280;33824;51.600;5.718;2023-03-01T03:01:48;102847.63;;;-1.11;72.43
48053;BME280;33824;51.600;5.718;2023-03-01T03:04:15;102858.28;;;-1.17;72.88
48053;BME280;33824;51.600;5.718;2023-03-01T03:06:45;102851.44;;;-1.21;73.32
48053;BME280;33824;51.600;5.718;2023-03-01T03:09:11;102849.75;;;-1.22;73.67
48053;BME280;33824;51.600;5.718;2023-03-01T03:11:37;102846.34;;;-1.25;73.81
48053;BME280;33824;51.600;5.718;2023-03-01T03:14:05;102858.44;;;-1.21;74.10
48053;BME280;33824;51.600;5.718;2023-03-01T03:16:31;102859.44;;;-1.25;73.96
48053;BME280;33824;51.600;5.718;2023-03-01T03:18:56;102857.84;;;-1.29;73.32
48053;BME280;33824;51.600;5.718;2023-03-01T03:21:32;102850.94;;;-1.32;73.76
48053;BME280;33824;51.600;5.718;2023-03-01T03:23:58;102850.00;;;-1.29;73.78
48053;BME280;33824;51.600;5.718;2023-03-01T03:26:24;102850.81;;;-1.29;73.37
48053;BME280;33824;51.600;5.718;2023-03-01T03:28:49;102845.66;;;-1.30;73.09
48053;BME280;33824;51.600;5.718;2023-03-01T03:31:15;102842.22;;;-1.32;73.03
48053;BME280;33824;51.600;5.718;2023-03-01T03:33:40;102842.44;;;-1.38;73.08
48053;BME280;33824;51.600;5.718;2023-03-01T03:36:06;102854.69;;;-1.40;73.81
48053;BME280;33824;51.600;5.718;2023-03-01T03:38:37;102851.28;;;-1.42;74.73
48053;BME280;33824;51.600;5.718;2023-03-01T03:41:06;102847.84;;;-1.45;74.06
48053;BME280;33824;51.600;5.718;2023-03-01T03:43:34;102846.91;;;-1.42;74.75
48053;BME280;33824;51.600;5.718;2023-03-01T03:46:00;102836.38;;;-1.40;74.08
48053;BME280;33824;51.600;5.718;2023-03-01T03:48:26;102839.91;;;-1.41;73.80
48053;BME280;33824;51.600;5.718;2023-03-01T03:50:54;102847.78;;;-1.43;73.88
48053;BME280;33824;51.600;5.718;2023-03-01T03:53:22;102840.78;;;-1.41;73.69
48053;BME280;33824;51.600;5.718;2023-03-01T03:55:48;102845.28;;;-1.46;73.25
48053;BME280;33824;51.600;5.718;2023-03-01T03:58:15;102845.44;;;-1.51;72.98
